Time;durP1;ratioP1;P1;durP2;ratioP2;P2;SDS_P1;SDS_P2;PMS_P1;PMS_P2;Temp;Humidity;BMP_temperature;BMP_pressure;BME280_temperature;BME280_humidity;BME280_pressure;Samples;Min_cycle;Max_cycle;Signal;HPM_P1;HPM_P2
2024/02/22 00:01:05;;;;;;;3.50;2.50;;;;;;;3.20;100.00;97484.56;1224120;75;2930998;-64
2024/02/22 00:03:38;;;;;;;3.45;2.35;;;;;;;3.19;100.00;97476.88;1225194;75;2920869;-63
2024/02/22 00:06:11;;;;;;;3.80;2.60;;;;;;;3.24;100.00;97478.28;1224247;75;2936754;-64
2024/02/22 00:08:45;;;;;;;3.45;2.30;;;;;;;3.29;100.00;97477.75;1223912;75;2921917;-63
2024/02/22 00:11:18;;;;;;;3.00;2.30;;;;;;;3.20;100.00;97464.88;1225376;75;2921133;-63
2024/02/22 00:13:54;;;;;;;3.00;1.95;;;;;;;3.22;100.00;97457.06;1225215;75;2917001;-65
2024/02/22 00:16:27;;;;;;;5.50;2.60;;;;;;;3.05;100.00;97447.53;1224486;75;2922113;-63
2024/02/22 00:18:59;;;;;;;4.05;2.70;;;;;;;3.06;100.00;97457.91;1225151;75;2915225;-63
2024/02/22 00:21:32;;;;;;;3.70;2.50;;;;;;;3.03;100.00;97445.28;1224389;75;2925608;-64
2024/02/22 00:24:05;;;;;;;3.40;2.10;;;;;;;3.06;100.00;97449.06;1224525;75;2932533;-64
2024/02/22 00:26:38;;;;;;;3.20;2.20;;;;;;;3.04;100.00;97462.25;1225235;75;2920248;-63
2024/02/22 00:29:13;;;;;;;3.90;2.45;;;;;;;2.89;100.00;97459.19;1224958;75;2917299;-63
2024/02/22 00:31:47;;;;;;;3.40;2.35;;;;;;;3.00;100.00;97448.81;1224444;75;2921290;-64
2024/02/22 00:34:20;;;;;;;4.20;3.00;;;;;;;2.75;100.00;97442.16;1224441;75;2921788;-64
2024/02/22 00:36:52;;;;;;;4.05;2.75;;;;;;;2.89;100.00;97443.72;1224840;75;2925891;-62
2024/02/22 00:39:25;;;;;;;5.05;3.40;;;;;;;2.78;100.00;97440.53;1224812;75;2922495;-66
2024/02/22 00:41:58;;;;;;;5.35;3.15;;;;;;;2.60;100.00;97437.56;1224325;75;2914849;-63
2024/02/22 00:44:33;;;;;;;4.20;2.85;;;;;;;2.88;100.00;97433.31;1224412;75;2921177;-63
2024/02/22 00:47:06;;;;;;;3.55;2.65;;;;;;;2.97;100.00;97436.91;1224802;75;2919869;-62
2024/02/22 00:49:39;;;;;;;3.20;2.30;;;;;;;2.92;100.00;97426.63;1225011;75;2916819;-63
2024/02/22 00:52:12;;;;;;;3.15;2.30;;;;;;;2.81;100.00;97430.81;1224433;75;2922704;-65
2024/02/22 00:54:46;;;;;;;3.10;2.40;;;;;;;2.70;100.00;97423.03;1223997;75;2925637;-64
2024/02/22 00:57:19;;;;;;;6.55;4.10;;;;;;;2.34;100.00;97423.97;1224466;75;2923015;-63
2024/02/22 00:59:55;;;;;;;6.85;4.65;;;;;;;2.26;100.00;97412.59;1225045;75;2922670;-64
2024/02/22 01:02:28;;;;;;;6.00;3.80;;;;;;;2.50;100.00;97409.66;1225027;75;2907856;-63
2024/02/22 01:05:01;;;;;;;4.95;3.40;;;;;;;2.62;100.00;97402.75;1224604;75;2918624;-65
2024/02/22 01:07:34;;;;;;;4.00;2.80;;;;;;;2.55;100.00;97399.09;1224248;75;2919848;-64
2024/02/22 01:10:09;;;;;;;4.00;3.05;;;;;;;2.32;100.00;97394.69;1224258;75;2921981;-64
2024/02/22 01:12:42;;;;;;;5.20;2.95;;;;;;;2.45;100.00;97383.91;1224790;75;2922462;-63
2024/02/22 01:15:17;;;;;;;4.30;2.85;;;;;;;2.41;100.00;97382.50;1224030;75;2920749;-64
2024/02/22 01:17:50;;;;;;;4.25;3.10;;;;;;;2.41;100.00;97380.56;1224947;75;2917233;-64
2024/02/22 01:20:23;;;;;;;3.80;2.80;;;;;;;2.47;100.00;97378.09;1223974;75;2921637;-63
2024/02/22 01:22:56;;;;;;;3.00;2.40;;;;;;;2.43;100.00;97367.38;1225376;75;2922233;-63
2024/02/22 01:25:28;;;;;;;4.35;2.40;;;;;;;2.41;100.00;97361.66;1224931;75;2918796;-61
2024/02/22 01:28:01;;;;;;;3.55;2.50;;;;;;;2.29;100.00;97363.13;1225469;75;2916882;-63
2024/02/22 01:30:36;;;;;;;3.85;2.70;;;;;;;2.18;100.00;97362.66;1224708;75;2923650;-62
2024/02/22 01:33:12;;;;;;;4.50;3.15;;;;;;;2.30;100.00;97348.41;1225131;75;2920702;-62
2024/02/22 01:35:44;;;;;;;4.20;2.95;;;;;;;2.39;100.00;97353.22;1224284;75;2920000;-64
2024/02/22 01:38:17;;;;;;;3.50;2.40;;;;;;;2.37;100.00;97352.13;1225558;75;2914416;-64
2024/02/22 01:40:50;;;;;;;3.40;2.40;;;;;;;2.30;100.00;97345.72;1224807;75;2924710;-64
2024/02/22 01:43:23;;;;;;;3.85;2.60;;;;;;;2.32;100.00;97342.59;1225220;75;2924456;-66
2024/02/22 01:45:59;;;;;;;3.55;2.75;;;;;;;2.35;100.00;97339.78;1224942;75;2919117;-66
2024/02/22 01:48:33;;;;;;;2.95;2.25;;;;;;;2.32;100.00;97323.69;1225241;75;2924747;-66
2024/02/22 01:51:06;;;;;;;3.10;2.15;;;;;;;2.34;100.00;97319.38;1224808;75;2922142;-63
2024/02/22 01:53:39;;;;;;;7.70;3.15;;;;;;;2.18;100.00;97313.28;1224608;75;2919842;-61
2024/02/22 01:56:14;;;;;;;4.10;2.90;;;;;;;2.12;100.00;97308.41;1224295;75;2922197;-63
2024/02/22 01:58:47;;;;;;;3.75;2.65;;;;;;;2.31;100.00;97300.59;1224939;75;2923888;-66
2024/02/22 02:01:25;;;;;;;3.85;2.70;;;;;;;2.38;100.00;97299.59;1225392;75;2922540;-64
2024/02/22 02:03:58;;;;;;;3.00;2.40;;;;;;;2.41;100.00;97294.13;1225234;75;2917435;-63
2024/02/22 02:06:31;;;;;;;3.05;2.25;;;;;;;2.41;100.00;97291.41;1225323;75;2921251;-63
2024/02/22 02:09:05;;;;;;;2.95;2.15;;;;;;;2.37;100.00;97290.00;1221210;75;2921437;-66
2024/02/22 02:11:38;;;;;;;3.10;2.15;;;;;;;2.34;100.00;97286.22;1224422;75;2931562;-62
2024/02/22 02:14:11;;;;;;;2.75;1.85;;;;;;;2.40;100.00;97279.06;1223636;75;2921313;-63
2024/02/22 02:16:47;;;;;;;3.55;2.50;;;;;;;2.38;100.00;97269.88;1223049;75;2913983;-62
2024/02/22 02:19:24;;;;;;;2.65;2.15;;;;;;;2.45;100.00;97256.19;1224740;75;2924803;-62
2024/02/22 02:22:10;;;;;;;2.50;2.00;;;;;;;2.46;100.00;97255.75;1225493;75;2925599;-62
2024/02/22 02:24:48;;;;;;;2.80;1.95;;;;;;;2.54;100.00;97248.94;1223835;75;2922495;-63
2024/02/22 02:27:24;;;;;;;1.80;1.50;;;;;;;2.49;100.00;97241.38;1225198;75;2921550;-64
2024/02/22 02:29:56;;;;;;;2.30;1.75;;;;;;;2.53;100.00;97241.28;1224388;75;2922724;-62
2024/02/22 02:32:29;;;;;;;2.55;1.90;;;;;;;2.47;100.00;97234.91;1223874;75;2916882;-63
2024/02/22 02:35:02;;;;;;;2.90;1.80;;;;;;;2.53;100.00;97231.22;1224771;75;2918148;-61
2024/02/22 02:37:35;;;;;;;3.55;2.05;;;;;;;2.43;100.00;97234.22;1224978;75;2904274;-64
2024/02/22 02:40:09;;;;;;;5.95;3.90;;;;;;;2.10;100.00;97231.72;1225387;75;2920992;-63
2024/02/22 02:42:44;;;;;;;6.70;4.05;;;;;;;2.12;100.00;97227.41;1225583;75;2923210;-63
2024/02/22 02:45:18;;;;;;;6.60;4.30;;;;;;;2.07;100.00;97236.03;1224309;75;2916365;-66
2024/02/22 02:47:50;;;;;;;6.85;4.25;;;;;;;2.16;100.00;97207.63;1225045;75;2919789;-62
2024/02/22 02:50:23;;;;;;;4.55;3.25;;;;;;;2.43;100.00;97209.94;1224535;75;2919894;-63
2024/02/22 02:52:56;;;;;;;3.50;2.70;;;;;;;2.53;100.00;97208.88;1224183;75;2922656;-64
2024/02/22 02:55:29;;;;;;;3.85;3.05;;;;;;;2.46;100.00;97200.97;1224271;75;2916016;-62
2024/02/22 02:58:05;;;;;;;4.75;2.60;;;;;;;2.49;100.00;97195.44;1224218;75;2925679;-63
2024/02/22 03:00:38;;;;;;;3.05;2.30;;;;;;;2.54;100.00;97197.59;1224706;75;2919857;-65
2024/02/22 03:03:11;;;;;;;3.55;2.35;;;;;;;2.66;100.00;97185.28;1225143;75;2918042;-66
2024/02/22 03:05:44;;;;;;;2.75;1.90;;;;;;;2.68;100.00;97176.75;1223494;75;2931357;-63
2024/02/22 03:08:16;;;;;;;3.20;1.60;;;;;;;2.64;100.00;97173.41;1224902;75;2930123;-62
2024/02/22 03:10:49;;;;;;;2.85;2.30;;;;;;;2.43;100.00;97186.38;1225040;75;2919723;-62
2024/02/22 03:13:25;;;;;;;5.40;3.70;;;;;;;2.33;100.00;97180.13;1225183;75;2922705;-62
2024/02/22 03:15:57;;;;;;;3.85;2.95;;;;;;;2.51;100.00;97178.81;1224792;75;2916149;-64
2024/02/22 03:18:30;;;;;;;4.55;3.10;;;;;;;2.33;100.00;97168.53;1224299;75;2917377;-64
2024/02/22 03:21:03;;;;;;;3.20;2.75;;;;;;;2.52;100.00;97172.97;1225127;75;2922491;-65
2024/02/22 03:23:36;;;;;;;5.40;2.95;;;;;;;2.31;100.00;97165.53;1224115;75;2925090;-61
2024/02/22 03:26:09;;;;;;;4.80;3.40;;;;;;;2.47;100.00;97173.50;1224274;75;2923341;-64
2024/02/22 03:28:45;;;;;;;2.80;2.50;;;;;;;2.65;100.00;97164.13;1224252;75;2924790;-65
2024/02/22 03:31:18;;;;;;;3.70;2.55;;;;;;;2.47;100.00;97146.50;1224402;75;2927547;-63
2024/02/22 03:33:51;;;;;;;4.55;3.00;;;;;;;2.51;100.00;97147.16;1224678;75;2921259;-62
2024/02/22 03:36:24;;;;;;;4.05;2.65;;;;;;;2.69;100.00;97130.34;1223810;75;2922001;-63
2024/02/22 03:38:56;;;;;;;4.10;2.45;;;;;;;2.70;100.00;97133.84;1224943;75;2929269;-62
2024/02/22 03:41:30;;;;;;;2.75;2.30;;;;;;;2.65;100.00;97142.50;1223912;75;2920532;-66
2024/02/22 03:44:05;;;;;;;4.35;2.95;;;;;;;2.45;100.00;97127.25;1224167;75;2928585;-63
2024/02/22 03:46:38;;;;;;;4.10;3.05;;;;;;;2.38;100.00;97127.47;1225101;75;2918744;-64
2024/02/22 03:49:11;;;;;;;3.90;2.85;;;;;;;2.54;100.00;97135.47;1223796;75;2917369;-64
2024/02/22 03:51:43;;;;;;;3.50;2.60;;;;;;;2.55;100.00;97128.13;1223984;75;2922945;-63
2024/02/22 03:54:16;;;;;;;3.45;2.55;;;;;;;2.65;100.00;97124.34;1224391;75;2918711;-63
2024/02/22 03:56:50;;;;;;;2.90;2.10;;;;;;;2.67;100.00;97127.34;1224745;75;2923195;-64
2024/02/22 03:59:26;;;;;;;2.90;2.00;;;;;;;2.72;100.00;97131.47;1220677;75;3099360;-64
2024/02/22 04:01:59;;;;;;;2.35;1.90;;;;;;;2.73;100.00;97125.59;1224168;75;2924845;-63
2024/02/22 04:04:32;;;;;;;2.80;2.10;;;;;;;2.62;100.00;97132.53;1224156;75;2923884;-64
2024/02/22 04:07:06;;;;;;;3.15;2.15;;;;;;;2.71;100.00;97121.81;1224460;75;2921927;-62
2024/02/22 04:09:39;;;;;;;2.60;1.70;;;;;;;2.75;100.00;97128.63;1224579;75;2924991;-64
2024/02/22 04:12:12;;;;;;;4.35;2.60;;;;;;;2.62;100.00;97116.31;1225174;75;2918600;-63
2024/02/22 04:14:48;;;;;;;3.75;2.30;;;;;;;2.68;100.00;97128.84;1224094;75;2925232;-64
2024/02/22 04:17:21;;;;;;;4.95;2.90;;;;;;;2.60;100.00;97122.19;1223661;75;2930143;-64
2024/02/22 04:19:54;;;;;;;3.60;2.45;;;;;;;2.82;100.00;97121.50;1224097;75;2920009;-63
2024/02/22 04:22:27;;;;;;;4.30;3.30;;;;;;;2.62;100.00;97111.69;1224664;75;2917428;-59
2024/02/22 04:25:00;;;;;;;2.95;2.35;;;;;;;2.76;100.00;97102.34;1224432;75;2919560;-63
2024/02/22 04:27:33;;;;;;;3.75;2.45;;;;;;;2.72;100.00;97102.47;1224629;75;2921611;-62
2024/02/22 04:30:10;;;;;;;4.65;2.60;;;;;;;2.53;100.00;97098.84;1224816;75;2917317;-62
2024/02/22 04:32:43;;;;;;;4.05;2.90;;;;;;;2.58;100.00;97107.59;1224786;75;2920563;-63
2024/02/22 04:35:16;;;;;;;6.75;3.90;;;;;;;2.62;100.00;97097.41;1223338;75;2922586;-63
2024/02/22 04:37:49;;;;;;;4.50;3.45;;;;;;;2.78;100.00;97094.56;1224566;75;2924878;-63
2024/02/22 04:40:21;;;;;;;6.15;3.95;;;;;;;2.52;100.00;97089.22;1223863;75;2931342;-63
2024/02/22 04:42:54;;;;;;;6.75;5.60;;;;;;;2.65;100.00;97086.50;1223951;75;2925598;-62
2024/02/22 04:45:30;;;;;;;6.15;4.70;;;;;;;2.63;100.00;97088.88;1224331;75;2928592;-65
2024/02/22 04:48:03;;;;;;;6.65;5.65;;;;;;;2.56;100.00;97092.56;1223814;75;2915830;-64
2024/02/22 04:50:36;;;;;;;14.05;8.75;;;;;;;2.63;100.00;97074.63;1224460;75;2919938;-63
2024/02/22 04:53:09;;;;;;;14.85;9.30;;;;;;;2.47;100.00;97084.34;1224542;75;2915675;-64
2024/02/22 04:55:42;;;;;;;16.60;11.05;;;;;;;2.29;100.00;97078.78;1223855;75;2919056;-63
2024/02/22 04:58:15;;;;;;;15.30;10.75;;;;;;;2.26;100.00;97063.44;1224346;75;2921635;-64
2024/02/22 05:00:50;;;;;;;14.40;9.30;;;;;;;2.38;100.00;97062.66;1224417;75;2924455;-62
2024/02/22 05:03:23;;;;;;;13.10;9.15;;;;;;;2.24;100.00;97060.44;1223726;75;2923319;-64
2024/02/22 05:05:56;;;;;;;9.15;7.30;;;;;;;2.52;100.00;97058.75;1224166;75;2919616;-62
2024/02/22 05:08:29;;;;;;;8.30;6.10;;;;;;;2.58;100.00;97053.56;1224507;75;2875244;-64
2024/02/22 05:11:02;;;;;;;8.45;5.70;;;;;;;2.56;100.00;97041.22;1223708;75;2918249;-61
2024/02/22 05:13:35;;;;;;;6.10;5.00;;;;;;;2.52;100.00;97045.97;1224645;75;2919570;-61
2024/02/22 05:16:11;;;;;;;7.35;4.95;;;;;;;2.68;100.00;97042.38;1224157;75;2934982;-63
2024/02/22 05:18:44;;;;;;;5.70;3.85;;;;;;;2.61;100.00;97036.47;1223375;75;2925398;-63
2024/02/22 05:21:17;;;;;;;7.85;5.40;;;;;;;2.41;100.00;97034.03;1223420;75;2938883;-61
2024/02/22 05:23:50;;;;;;;7.90;5.00;;;;;;;2.49;100.00;97029.91;1224568;75;2920518;-64
2024/02/22 05:26:23;;;;;;;7.60;5.10;;;;;;;2.40;100.00;97033.25;1223059;75;2927606;-59
2024/02/22 05:28:56;;;;;;;6.80;5.05;;;;;;;2.67;100.00;97019.25;1224519;75;2923958;-63
2024/02/22 05:31:31;;;;;;;5.85;4.50;;;;;;;2.72;100.00;97021.41;1223398;75;2931394;-63
2024/02/22 05:34:04;;;;;;;5.15;4.35;;;;;;;2.63;100.00;97021.31;1223029;75;2924398;-63
2024/02/22 05:36:37;;;;;;;7.25;4.65;;;;;;;2.77;100.00;97014.69;1223965;75;2928818;-65
2024/02/22 05:39:11;;;;;;;10.75;7.85;;;;;;;2.35;100.00;97012.22;1224447;75;2925458;-60
2024/02/22 05:41:44;;;;;;;13.40;10.75;;;;;;;2.41;100.00;97005.06;1223800;75;2942223;-63
2024/02/22 05:44:17;;;;;;;13.15;9.40;;;;;;;2.35;100.00;97007.56;1224290;75;2931740;-63
2024/02/22 05:46:52;;;;;;;11.90;9.00;;;;;;;2.66;100.00;97003.47;1224409;75;2925401;-61
2024/02/22 05:49:25;;;;;;;16.20;12.70;;;;;;;2.59;100.00;97006.41;1224417;75;2927899;-62
2024/02/22 05:51:58;;;;;;;16.45;10.25;;;;;;;2.53;100.00;97011.63;1225238;75;2919047;-63
2024/02/22 05:54:30;;;;;;;10.60;8.00;;;;;;;2.53;100.00;97001.56;1223631;75;2920679;-64
2024/02/22 05:57:03;;;;;;;9.65;6.70;;;;;;;2.74;100.00;97002.81;1224407;75;2935177;-62
2024/02/22 05:59:36;;;;;;;8.15;6.50;;;;;;;2.74;100.00;96997.41;1224456;75;2919164;-63
2024/02/22 06:02:12;;;;;;;7.90;6.15;;;;;;;2.75;100.00;96993.50;1224942;75;2920151;-64
2024/02/22 06:04:45;;;;;;;8.40;6.55;;;;;;;2.76;100.00;96978.03;1223397;75;2932466;-63
2024/02/22 06:07:17;;;;;;;9.25;6.25;;;;;;;2.87;100.00;96981.13;1224431;75;2925926;-63
2024/02/22 06:09:50;;;;;;;7.65;5.30;;;;;;;2.98;100.00;96969.91;1223851;75;2925347;-61
2024/02/22 06:12:23;;;;;;;6.25;4.50;;;;;;;3.05;100.00;96977.00;1223443;75;2920477;-62
2024/02/22 06:14:56;;;;;;;4.70;3.90;;;;;;;2.97;100.00;96990.03;1223581;75;2924036;-64
2024/02/22 06:17:32;;;;;;;14.40;8.40;;;;;;;2.74;100.00;96985.81;1224212;75;2920997;-63
2024/02/22 06:20:07;;;;;;;9.25;6.80;;;;;;;2.95;100.00;96987.00;1222872;75;2921018;-63
2024/02/22 06:22:39;;;;;;;8.45;6.00;;;;;;;2.97;100.00;96976.53;1224610;75;2922843;-62
2024/02/22 06:25:13;;;;;;;10.50;6.60;;;;;;;2.89;100.00;96975.28;1223416;75;2924017;-63
2024/02/22 06:27:46;;;;;;;10.05;7.00;;;;;;;2.83;100.00;96977.78;1224207;75;2928797;-63
2024/02/22 06:30:21;;;;;;;9.60;7.15;;;;;;;2.82;100.00;96964.72;1224387;75;2933026;-63
2024/02/22 06:32:57;;;;;;;8.00;6.10;;;;;;;3.16;100.00;96967.31;1224281;75;2923372;-63
2024/02/22 06:35:30;;;;;;;7.65;5.35;;;;;;;3.19;100.00;96950.19;1224764;75;2922373;-61
2024/02/22 06:38:02;;;;;;;8.35;5.05;;;;;;;3.28;100.00;96940.63;1223678;75;2920167;-63
2024/02/22 06:40:35;;;;;;;6.50;4.90;;;;;;;3.24;100.00;96950.81;1223618;75;2923063;-64
2024/02/22 06:43:08;;;;;;;6.75;4.70;;;;;;;3.47;100.00;96944.19;1223303;75;2919651;-62
2024/02/22 06:45:41;;;;;;;6.90;4.35;;;;;;;3.62;100.00;96934.28;1221528;75;2925953;-63
2024/02/22 06:48:17;;;;;;;4.60;3.65;;;;;;;3.72;100.00;96945.91;1223173;75;2923403;-64
2024/02/22 06:50:49;;;;;;;10.40;6.10;;;;;;;3.32;100.00;96944.72;1223900;75;2919318;-62
2024/02/22 06:53:22;;;;;;;10.45;6.15;;;;;;;3.53;100.00;96945.81;1223450;75;2923977;-63
2024/02/22 06:55:55;;;;;;;7.70;5.05;;;;;;;3.89;100.00;96936.31;1223007;75;2935568;-64
2024/02/22 06:58:54;;;;;;;;;;;;;;;4.18;100.00;96944.03;170126;83;21724059;-62
2024/02/22 07:02:15;;;;;;;16.85;3.80;;;;;;;3.98;100.00;96938.28;8;21574463;21798588;-62
2024/02/22 07:05:38;;;;;;;8.30;5.10;;;;;;;4.09;100.00;96935.13;8;21548657;21799056;-62
2024/02/22 07:08:57;;;;;;;;;;;;;;;4.32;100.00;96920.25;8;21373598;21723566;-62
2024/02/22 07:12:17;;;;;;;6.35;4.45;;;;;;;4.38;100.00;96924.63;8;21648238;21773162;-62
2024/02/22 07:15:36;;;;;;;;;;;;;;;4.74;100.00;96909.56;8;21348739;21823901;-62
2024/02/22 07:18:56;;;;;;;8.15;4.60;;;;;;;4.99;100.00;96900.28;8;21473128;21825038;-62
2024/02/22 07:22:22;;;;;;;13.10;5.55;;;;;;;4.70;100.00;96892.69;8;21548172;21774607;-64
2024/02/22 07:25:42;;;;;;;7.35;4.50;;;;;;;4.88;100.00;96873.66;8;21573586;21775032;-62
2024/02/22 07:29:02;;;;;;;8.10;5.10;;;;;;;4.95;100.00;96891.56;8;21573963;21698128;-62
2024/02/22 07:32:23;;;;;;;12.05;6.75;;;;;;;4.92;100.00;96887.06;8;21548647;21848105;-62
2024/02/22 07:35:44;;;;;;;10.70;5.90;;;;;;;5.17;97.88;96893.31;8;21623141;21773563;-62
2024/02/22 07:39:07;;;;;;;8.30;6.50;;;;;;;5.54;96.60;96870.22;8;21573610;21799054;-62
2024/02/22 07:42:27;;;;;;;7.20;4.40;;;;;;;5.85;94.76;96871.09;8;21548605;21799076;-62
2024/02/22 07:45:50;;;;;;;6.65;3.80;;;;;;;5.83;92.88;96855.28;8;21523038;21723722;-62
2024/02/22 07:49:10;;;;;;;17.05;4.15;;;;;;;5.80;92.44;96861.63;8;21523662;21772992;-62
2024/02/22 07:52:30;;;;;;;9.85;4.80;;;;;;;5.45;96.46;96862.13;8;21522648;21748195;-62
2024/02/22 07:55:53;;;;;;;8.50;6.05;;;;;;;5.62;95.95;96859.78;8;21549065;21773558;-60
2024/02/22 07:59:14;;;;;;;10.60;6.35;;;;;;;5.66;92.67;96860.34;8;21598206;21750017;-62
2024/02/22 08:02:34;;;;;;;9.95;5.70;;;;;;;5.83;92.50;96852.56;8;21598125;21824088;-62
2024/02/22 08:05:54;;;;;;;14.25;5.15;;;;;;;5.92;91.43;96862.63;8;21498200;21797675;-62
2024/02/22 08:09:15;;;;;;;9.00;4.95;;;;;;;6.01;90.39;96853.66;8;21573137;21848647;-62
2024/02/22 08:12:38;;;;;;;10.95;6.05;;;;;;;5.95;89.75;96848.88;8;21573617;21748695;-62
2024/02/22 08:16:06;;;;;;;10.55;5.60;;;;;;;6.19;88.67;96854.25;8;21599059;21923165;-62
2024/02/22 08:19:26;;;;;;;6.70;4.70;;;;;;;6.37;87.13;96856.09;8;21548591;21773615;-62
2024/02/22 08:22:44;;;;;;;;;;;;;;;6.54;86.45;96850.94;8;21399065;21649357;-62
2024/02/22 08:26:04;;;;;;;5.10;3.90;;;;;;;6.57;84.65;96844.56;8;21548231;21723610;-61
2024/02/22 08:29:27;;;;;;;7.10;5.00;;;;;;;6.73;84.55;96837.91;8;21499067;21773686;-61
2024/02/22 08:32:47;;;;;;;10.80;4.90;;;;;;;6.88;83.46;96840.63;8;21548125;21723563;-62
2024/02/22 08:36:08;;;;;;;6.55;4.30;;;;;;;7.31;81.30;96821.97;8;21498164;21773577;-62
2024/02/22 08:39:28;;;;;;;9.30;4.55;;;;;;;7.32;79.44;96826.19;8;21623697;21824071;-62
2024/02/22 08:42:49;;;;;;;16.75;4.35;;;;;;;7.66;77.84;96816.47;8;21573341;21849142;-62
2024/02/22 08:46:12;;;;;;;2.95;2.50;;;;;;;7.90;76.57;96813.53;8;21573591;21798617;-62
2024/02/22 08:49:32;;;;;;;8.15;5.05;;;;;;;8.02;75.92;96816.41;8;21598586;21724552;-62
2024/02/22 08:52:52;;;;;;;8.45;4.80;;;;;;;8.16;75.24;96798.47;8;21498175;21774008;-62
2024/02/22 08:56:14;;;;;;;8.30;4.35;;;;;;;8.18;75.43;96820.53;8;21574535;21722605;-62
2024/02/22 08:59:34;;;;;;;8.55;5.25;;;;;;;7.93;75.18;96814.56;8;21574618;21797625;-63
2024/02/22 09:02:57;;;;;;;7.65;5.65;;;;;;;8.37;74.42;96796.41;8;21623649;21799591;-62
2024/02/22 09:06:17;;;;;;;8.05;5.25;;;;;;;8.83;73.29;96795.63;8;21573525;21724056;-61
2024/02/22 09:09:37;;;;;;;14.50;7.95;;;;;;;8.38;74.05;96803.38;8;21548553;21823566;-62
2024/02/22 09:12:58;;;;;;;10.40;6.45;;;;;;;8.50;73.09;96786.66;8;21548188;21725046;-62
2024/02/22 09:16:26;;;;;;;9.70;6.00;;;;;;;8.52;73.42;96784.19;8;21548229;21774541;-63
2024/02/22 09:19:49;;;;;;;11.90;7.95;;;;;;;8.78;73.96;96780.69;8;21623564;21798987;-62
2024/02/22 09:23:09;;;;;;;10.15;7.35;;;;;;;8.98;72.36;96785.31;8;21498589;21873634;-61
2024/02/22 09:26:30;;;;;;;9.55;6.25;;;;;;;8.60;73.98;96779.06;8;21623091;21825055;-62
2024/02/22 09:29:50;;;;;;;9.40;5.75;;;;;;;9.07;73.19;96773.44;8;21573154;21724561;-62
2024/02/22 09:33:10;;;;;;;8.40;6.05;;;;;;;9.11;73.31;96773.94;8;21548816;21773082;-62
2024/02/22 09:36:33;;;;;;;8.05;4.80;;;;;;;8.91;72.96;96775.56;8;21573613;21848573;-62
2024/02/22 09:39:51;;;;;;;;;;;;;;;8.98;73.08;96765.44;8;21348148;21774118;-62
2024/02/22 09:43:14;;;;;;;11.95;7.60;;;;;;;9.24;73.29;96777.03;8;21498661;21774062;-62
2024/02/22 09:46:34;;;;;;;7.60;5.65;;;;;;;9.10;72.39;96767.00;8;21548661;21749529;-62
2024/02/22 09:49:55;;;;;;;6.35;4.95;;;;;;;9.38;72.64;96770.66;8;21547595;21798613;-62
2024/02/22 09:53:18;;;;;;;8.45;6.20;;;;;;;9.36;72.61;96772.38;8;21623115;21724590;-62
2024/02/22 09:56:39;;;;;;;11.35;5.80;;;;;;;9.37;72.01;96774.59;8;21524106;21824018;-62
2024/02/22 09:59:59;;;;;;;8.20;4.85;;;;;;;9.54;72.73;96777.41;8;21549130;21798026;-63
2024/02/22 10:03:19;;;;;;;4.30;3.25;;;;;;;9.57;75.20;96773.72;8;21548578;21774537;-62
2024/02/22 10:06:39;;;;;;;6.75;3.80;;;;;;;9.61;77.37;96770.75;8;21573674;21874542;-63
2024/02/22 10:10:03;;;;;;;9.70;4.90;;;;;;;9.34;79.21;96777.56;8;21548620;21725022;-63
2024/02/22 10:13:23;;;;;;;8.65;6.15;;;;;;;9.71;80.68;96771.28;8;21600017;21773603;-62
2024/02/22 10:16:45;;;;;;;;;;;;;;;9.54;80.91;96771.94;8;21423660;21624033;-62
2024/02/22 10:20:07;;;;;;;5.20;3.25;;;;;;;9.79;80.88;96772.31;8;21598609;21748148;-62
2024/02/22 10:23:27;;;;;;;6.25;4.50;;;;;;;9.78;85.59;96777.00;8;21573608;21748591;-62
2024/02/22 10:26:50;;;;;;;6.05;3.80;;;;;;;9.98;88.94;96775.31;8;21523623;21749559;-63
2024/02/22 10:30:16;;;;;;;8.80;4.20;;;;;;;9.86;88.46;96765.59;8;21524120;21774084;-64
2024/02/22 10:33:37;;;;;;;3.45;2.65;;;;;;;9.85;93.53;96764.88;8;21548116;21773622;-63
2024/02/22 10:36:59;;;;;;;9.95;6.65;;;;;;;9.37;100.00;96763.66;8;21424094;21724027;-63
2024/02/22 10:40:19;;;;;;;8.10;6.25;;;;;;;9.76;100.00;96770.53;8;21598193;21724042;-63
2024/02/22 10:43:43;;;;;;;11.55;6.30;;;;;;;9.21;100.00;96767.06;8;21474099;21699085;-63
2024/02/22 10:47:05;;;;;;;13.75;7.55;;;;;;;9.70;100.00;96767.06;8;21598108;21798611;-63
2024/02/22 10:50:30;;;;;;;3.95;3.20;;;;;;;9.85;100.00;96777.78;8;21624040;21823601;-63
2024/02/22 10:53:55;;;;;;;3.85;3.45;;;;;;;9.64;100.00;96771.75;8;21573129;21773130;-63
2024/02/22 10:57:15;;;;;;;8.50;4.85;;;;;;;9.58;100.00;96767.00;8;21549118;21799045;-63
2024/02/22 11:00:40;;;;;;;7.25;4.40;;;;;;;9.69;100.00;96771.78;8;21573643;21824100;-63
2024/02/22 11:04:01;;;;;;;10.50;6.85;;;;;;;9.36;100.00;96773.13;8;21573557;21773640;-63
2024/02/22 11:07:22;;;;;;;13.20;9.00;;;;;;;9.34;100.00;96772.84;8;21648183;21849611;-63
2024/02/22 11:10:43;;;;;;;10.50;7.75;;;;;;;9.17;100.00;96770.03;8;21649381;21749089;-63
2024/02/22 11:14:05;;;;;;;8.30;7.30;;;;;;;9.36;100.00;96772.38;8;21548510;21774607;-63
2024/02/22 11:17:30;;;;;;;7.75;5.85;;;;;;;9.56;100.00;96766.75;8;21573105;21774573;-63
2024/02/22 11:20:50;;;;;;;0.10;0.10;;;;;;;9.36;100.00;96762.19;8;21573610;21773671;-63
2024/02/22 11:24:13;;;;;;;12.95;5.90;;;;;;;9.31;100.00;96756.72;8;21548546;21924617;-63
2024/02/22 11:27:34;;;;;;;13.75;7.60;;;;;;;9.47;100.00;96749.81;8;21448178;21774040;-63
2024/02/22 11:30:54;;;;;;;12.05;5.80;;;;;;;9.14;100.00;96753.88;8;21573206;21774837;-63
2024/02/22 11:34:19;;;;;;;;;;;;;;;9.49;100.00;96750.81;8;21373572;21648609;-63
2024/02/22 11:37:39;;;;;;;4.75;3.50;;;;;;;9.67;100.00;96746.94;8;21498175;21824096;-63
2024/02/22 11:41:09;;;;;;;4.45;3.30;;;;;;;9.49;100.00;96734.41;8;21599613;21748544;-63
2024/02/22 11:44:28;;;;;;;4.25;3.70;;;;;;;9.69;100.00;96730.03;8;21498155;21724587;-63
2024/02/22 11:47:49;;;;;;;4.30;2.15;;;;;;;9.37;100.00;96724.69;8;21573124;21824036;-63
2024/02/22 11:51:12;;;;;;;7.05;3.55;;;;;;;9.64;100.00;96714.34;8;21498169;21799048;-63
2024/02/22 11:54:32;;;;;;;7.55;4.45;;;;;;;9.28;100.00;96713.97;8;21648618;21749126;-64
2024/02/22 11:57:52;;;;;;;9.20;5.65;;;;;;;9.18;100.00;96721.63;8;21573665;21799052;-63
2024/02/22 12:01:13;;;;;;;6.65;5.30;;;;;;;8.87;100.00;96720.44;8;21549025;21824950;-63
2024/02/22 12:04:33;;;;;;;14.25;6.35;;;;;;;8.95;100.00;96712.56;8;21548574;21774604;-63
2024/02/22 12:07:57;;;;;;;9.55;5.75;;;;;;;9.00;100.00;96702.94;8;21523206;21773566;-62
2024/02/22 12:11:17;;;;;;;;;;;;;;;8.83;100.00;96700.09;8;21523123;21748584;-62
2024/02/22 12:14:37;;;;;;;8.40;6.60;;;;;;;8.93;100.00;96690.47;8;21573993;21797803;-63
2024/02/22 12:17:57;;;;;;;15.90;5.05;;;;;;;8.86;100.00;96678.03;8;21598594;21723641;-63
2024/02/22 12:21:18;;;;;;;6.25;5.25;;;;;;;8.86;100.00;96669.84;8;21598601;21823611;-63
2024/02/22 12:24:41;;;;;;;9.35;5.70;;;;;;;8.80;100.00;96662.84;8;21598679;21798530;-62
2024/02/22 12:28:01;;;;;;;10.95;6.10;;;;;;;8.68;100.00;96667.50;8;21523592;21824567;-63
2024/02/22 12:31:23;;;;;;;6.75;4.40;;;;;;;8.83;100.00;96654.44;8;21548095;21799527;-63
2024/02/22 12:34:43;;;;;;;6.20;3.60;;;;;;;9.13;100.00;96662.28;8;21548556;21748653;-63
2024/02/22 12:38:04;;;;;;;5.75;4.60;;;;;;;9.04;100.00;96643.38;8;21548639;21773565;-62
2024/02/22 12:41:27;;;;;;;4.45;3.60;;;;;;;9.21;100.00;96638.72;8;21548617;21797597;-61
2024/02/22 12:44:47;;;;;;;5.70;3.10;;;;;;;9.32;100.00;96614.19;8;21573582;21749089;-60
2024/02/22 12:48:09;;;;;;;2.10;1.40;;;;;;;9.34;100.00;96602.78;8;21548582;21825069;-60
2024/02/22 12:51:28;;;;;;;;;;;;;;;9.21;100.00;96600.47;8;21398623;21798603;-60
2024/02/22 12:54:48;;;;;;;7.90;5.00;;;;;;;9.64;100.00;96596.84;8;21573993;21798168;-60
2024/02/22 12:58:11;;;;;;;5.60;3.70;;;;;;;9.90;100.00;96585.69;8;21573589;21723585;-60
2024/02/22 13:01:30;;;;;;;7.35;3.40;;;;;;;10.09;100.00;96577.75;8;21524031;21649112;-60
2024/02/22 13:04:50;;;;;;;4.25;2.80;;;;;;;10.41;100.00;96576.25;8;21598509;21873640;-60
2024/02/22 13:08:11;;;;;;;3.75;2.95;;;;;;;10.85;100.00;96554.69;8;21598641;21799094;-61
2024/02/22 13:11:31;;;;;;;3.75;2.90;;;;;;;11.01;100.00;96551.13;8;21548580;21773607;-60
2024/02/22 13:14:54;;;;;;;9.05;3.20;;;;;;;11.11;100.00;96559.78;8;21598654;21748187;-61